createdAt,value
2023-05-14T00:00:38.954Z,94.87
2023-05-14T00:01:38.984Z,94.98
2023-05-14T00:02:39.066Z,95.07
2023-05-14T00:03:38.991Z,95.18
2023-05-14T00:04:38.965Z,95.18
2023-05-14T00:05:38.904Z,95.23
2023-05-14T00:06:38.896Z,95.32
2023-05-14T00:07:38.903Z,95.32
2023-05-14T00:08:38.843Z,95.18
2023-05-14T00:09:38.830Z,95.23
2023-05-14T00:10:38.817Z,95.18
2023-05-14T00:11:38.816Z,95.18
2023-05-14T00:12:38.814Z,95.18
2023-05-14T00:13:38.790Z,95.32
2023-05-14T00:14:38.772Z,95.49
2023-05-14T00:15:38.797Z,95.39
2023-05-14T00:16:38.799Z,95.28
2023-05-14T00:17:38.782Z,95.28
2023-05-14T00:18:38.747Z,95.49
2023-05-14T00:19:38.725Z,95.59
2023-05-14T00:20:38.711Z,96.00
2023-05-14T00:21:38.688Z,96.10
2023-05-14T00:22:38.670Z,96.10
2023-05-14T00:23:38.649Z,96.00
2023-05-14T00:24:38.665Z,96.00
2023-05-14T00:25:38.734Z,95.79
2023-05-14T00:26:38.616Z,95.69
2023-05-14T00:27:38.610Z,95.59
2023-05-14T00:28:38.580Z,95.69
2023-05-14T00:29:38.559Z,95.59
2023-05-14T00:30:38.571Z,95.59
2023-05-14T00:31:38.591Z,96.00
2023-05-14T00:32:38.549Z,96.10
2023-05-14T00:33:38.517Z,96.10
2023-05-14T00:34:38.493Z,95.90
2023-05-14T00:35:38.508Z,95.90
2023-05-14T00:36:38.462Z,96.31
2023-05-14T00:37:38.449Z,96.31
2023-05-14T00:38:38.452Z,96.20
2023-05-14T00:39:38.426Z,96.10
2023-05-14T00:40:38.450Z,96.10
2023-05-14T00:41:38.392Z,95.86
2023-05-14T00:42:38.410Z,95.75
2023-05-14T00:43:38.386Z,95.75
2023-05-14T00:44:38.406Z,95.65
2023-05-14T00:45:38.364Z,95.54
2023-05-14T00:46:38.415Z,95.65
2023-05-14T00:47:38.353Z,95.65
2023-05-14T00:48:38.294Z,96.16
2023-05-14T00:49:38.298Z,96.06
2023-05-14T00:50:38.298Z,96.06
2023-05-14T00:51:38.312Z,96.20
2023-05-14T00:52:38.262Z,96.10
2023-05-14T00:53:38.241Z,96.31
2023-05-14T00:54:38.229Z,96.31
2023-05-14T00:55:38.224Z,96.31
2023-05-14T00:56:38.222Z,96.41
2023-05-14T00:57:38.221Z,96.72
2023-05-14T00:58:38.233Z,96.82
2023-05-14T00:59:38.158Z,97.03
2023-05-14T01:00:38.160Z,97.13
2023-05-14T01:01:38.151Z,97.03
2023-05-14T01:02:38.262Z,96.92
2023-05-14T01:03:38.219Z,97.13
2023-05-14T01:04:38.112Z,97.13
2023-05-14T01:05:38.096Z,97.23
2023-05-14T01:06:38.092Z,97.23
2023-05-14T01:07:38.074Z,97.23
2023-05-14T01:08:38.043Z,97.13
2023-05-14T01:09:38.049Z,96.82
2023-05-14T01:10:38.032Z,96.62
2023-05-14T01:11:38.004Z,96.51
2023-05-14T01:12:37.993Z,96.41
2023-05-14T01:13:37.996Z,96.41
2023-05-14T01:14:37.949Z,96.41
2023-05-14T01:15:37.944Z,96.31
2023-05-14T01:16:38.023Z,96.51
2023-05-14T01:17:37.950Z,96.51
2023-05-14T01:18:37.925Z,96.62
2023-05-14T01:19:37.927Z,96.62
2023-05-14T01:20:37.885Z,96.72
2023-05-14T01:21:37.907Z,96.82
2023-05-14T01:22:37.862Z,96.72
2023-05-14T01:23:37.833Z,96.72
2023-05-14T01:24:37.858Z,96.72
2023-05-14T01:25:37.815Z,96.62
2023-05-14T01:26:37.810Z,96.72
2023-05-14T01:27:37.779Z,96.82
2023-05-14T01:28:37.760Z,96.82
2023-05-14T01:29:37.777Z,96.72
2023-05-14T01:30:37.761Z,96.62
2023-05-14T01:31:37.777Z,96.51
2023-05-14T01:32:37.756Z,96.31
2023-05-14T01:33:37.754Z,96.10
2023-05-14T01:34:37.694Z,95.90
2023-05-14T01:35:37.665Z,95.90
2023-05-14T01:36:37.668Z,96.00
2023-05-14T01:37:37.638Z,95.90
2023-05-14T01:38:37.666Z,96.00
2023-05-14T01:39:37.650Z,96.20
2023-05-14T01:40:37.644Z,96.20
2023-05-14T01:41:37.594Z,96.20
2023-05-14T01:42:37.602Z,96.31
2023-05-14T01:43:37.676Z,96.51
2023-05-14T01:44:37.558Z,96.62
2023-05-14T01:45:37.598Z,96.62
2023-05-14T01:46:37.631Z,96.62
2023-05-14T01:47:37.537Z,96.51
2023-05-14T01:48:37.510Z,96.51
2023-05-14T01:49:37.490Z,96.62
2023-05-14T01:50:37.481Z,96.62
2023-05-14T01:51:37.467Z,96.72
2023-05-14T01:52:37.473Z,96.82
2023-05-14T01:53:37.425Z,96.92
2023-05-14T01:54:37.413Z,96.92
2023-05-14T01:55:37.383Z,97.03
2023-05-14T01:56:37.374Z,96.92
2023-05-14T01:57:37.375Z,96.82
2023-05-14T01:58:37.391Z,96.72
2023-05-14T01:59:37.377Z,96.72
2023-05-14T02:00:37.319Z,96.72
2023-05-14T02:01:37.334Z,96.72
2023-05-14T02:02:37.337Z,96.82
2023-05-14T02:03:37.374Z,96.82
2023-05-14T02:04:37.279Z,96.82
2023-05-14T02:05:37.257Z,97.03
2023-05-14T02:06:37.258Z,97.23
2023-05-14T02:08:07.784Z,97.44
2023-05-14T02:08:37.252Z,97.44
2023-05-14T02:09:37.208Z,97.23
2023-05-14T02:10:37.215Z,97.03
2023-05-14T02:11:37.188Z,97.03
2023-05-14T02:12:37.165Z,97.03
2023-05-14T02:13:37.183Z,97.03
2023-05-14T02:14:37.139Z,97.03
2023-05-14T02:15:37.183Z,96.92
2023-05-14T02:16:37.107Z,96.62
2023-05-14T02:17:37.145Z,96.31
2023-05-14T02:18:37.169Z,96.20
2023-05-14T02:19:37.067Z,96.10
2023-05-14T02:20:37.068Z,96.31
2023-05-14T02:21:37.039Z,96.31
2023-05-14T02:22:37.033Z,96.25
2023-05-14T02:23:41.639Z,96.25
2023-05-14T02:24:37.006Z,96.25
2023-05-14T02:25:37.022Z,96.15
2023-05-14T02:26:37.058Z,96.25
2023-05-14T02:27:36.971Z,96.25
2023-05-14T02:28:36.958Z,96.15
2023-05-14T02:29:36.956Z,96.25
2023-05-14T02:30:36.970Z,96.45
2023-05-14T02:31:37.006Z,96.45
2023-05-14T02:32:37.006Z,96.35
2023-05-14T02:33:37.018Z,96.25
2023-05-14T02:34:36.874Z,96.45
2023-05-14T02:35:36.881Z,96.70
2023-05-14T02:36:36.845Z,96.70
2023-05-14T02:37:36.843Z,97.02
2023-05-14T02:38:36.830Z,97.02
2023-05-14T02:39:36.826Z,97.12
2023-05-14T02:40:36.812Z,97.22
2023-05-14T02:41:36.821Z,97.32
2023-05-14T02:42:36.778Z,97.12
2023-05-14T02:43:36.780Z,97.12
2023-05-14T02:44:36.748Z,97.12
2023-05-14T02:45:36.728Z,97.12
2023-05-14T02:46:36.799Z,97.22
2023-05-14T02:47:38.219Z,97.32
2023-05-14T02:48:36.723Z,97.22
2023-05-14T02:49:36.703Z,97.12
2023-05-14T02:50:36.654Z,97.22
2023-05-14T02:51:36.635Z,97.12
2023-05-14T02:52:36.687Z,97.02
2023-05-14T02:53:36.657Z,96.91
2023-05-14T02:54:36.611Z,96.81
2023-05-14T02:55:36.585Z,96.70
2023-05-14T02:56:36.568Z,96.60
2023-05-14T02:57:36.599Z,96.50
2023-05-14T02:58:36.553Z,96.40
2023-05-14T02:59:36.550Z,96.30
2023-05-14T03:00:36.581Z,96.19
2023-05-14T03:01:36.512Z,96.09
2023-05-14T03:02:36.587Z,96.19
2023-05-14T03:03:36.487Z,96.30
2023-05-14T03:04:36.478Z,96.50
2023-05-14T03:05:36.495Z,96.40
2023-05-14T03:06:36.429Z,96.30
2023-05-14T03:07:36.428Z,96.19
2023-05-14T03:08:36.458Z,96.19
2023-05-14T03:09:38.280Z,96.09
2023-05-14T03:10:36.421Z,96.14
2023-05-14T03:11:36.418Z,96.14
2023-05-14T03:12:36.356Z,96.34
2023-05-14T03:13:36.393Z,96.23
2023-05-14T03:14:36.335Z,96.14
2023-05-14T03:15:36.329Z,95.93
2023-05-14T03:16:36.377Z,95.72
2023-05-14T03:17:36.403Z,95.72
2023-05-14T03:18:36.353Z,95.93
2023-05-14T03:19:36.274Z,96.28
2023-05-14T03:20:36.279Z,96.48
2023-05-14T03:21:36.240Z,96.69
2023-05-14T03:22:36.229Z,96.90
2023-05-14T03:23:36.221Z,96.90
2023-05-14T03:24:36.230Z,97.00
2023-05-14T03:25:36.393Z,97.00
2023-05-14T03:26:36.162Z,97.15
2023-05-14T03:29:03.756Z,97.36
2023-05-14T03:29:09.137Z,97.45
2023-05-14T03:30:09.119Z,97.56
2023-05-14T03:31:09.141Z,97.77
2023-05-14T03:32:09.055Z,97.97
2023-05-14T03:33:09.056Z,98.07
2023-05-14T03:34:09.041Z,98.18
2023-05-14T03:35:09.037Z,98.28
2023-05-14T03:36:09.046Z,98.28
2023-05-14T03:37:08.992Z,98.18
2023-05-14T03:38:08.993Z,98.18
2023-05-14T03:39:08.966Z,98.18
2023-05-14T03:40:08.978Z,98.18
2023-05-14T03:41:08.972Z,98.07
2023-05-14T03:42:08.929Z,98.03
2023-05-14T03:43:08.959Z,98.03
2023-05-14T03:44:08.908Z,98.03
2023-05-14T03:45:08.952Z,98.13
2023-05-14T03:46:08.900Z,98.13
2023-05-14T03:47:08.858Z,98.24
2023-05-14T03:48:08.934Z,98.24
2023-05-14T03:49:08.949Z,98.03
2023-05-14T03:50:08.823Z,98.03
2023-05-14T03:51:08.864Z,98.03
2023-05-14T03:52:08.794Z,98.03
2023-05-14T03:53:08.784Z,98.13
2023-05-14T03:54:08.787Z,98.33
2023-05-14T03:55:08.753Z,98.54
2023-05-14T03:56:08.747Z,98.54
2023-05-14T03:57:08.736Z,98.65
2023-05-14T03:58:08.746Z,98.70
2023-05-14T03:59:08.702Z,98.70
2023-05-14T04:00:08.695Z,98.60
2023-05-14T04:01:08.678Z,98.39
2023-05-14T04:02:08.669Z,98.29
2023-05-14T04:03:08.744Z,98.08
2023-05-14T04:04:08.708Z,98.19
2023-05-14T04:05:08.638Z,98.19
2023-05-14T04:06:08.645Z,98.19
2023-05-14T04:07:08.604Z,98.19
2023-05-14T04:08:08.604Z,98.19
2023-05-14T04:09:08.622Z,98.08
2023-05-14T04:10:08.572Z,98.08
2023-05-14T04:11:08.551Z,98.29
2023-05-14T04:12:08.587Z,98.39
2023-05-14T04:13:08.557Z,98.29
2023-05-14T04:14:08.493Z,98.39
2023-05-14T04:15:08.514Z,98.50
2023-05-14T04:16:08.532Z,98.50
2023-05-14T04:17:08.471Z,98.70
2023-05-14T04:18:08.475Z,98.70
2023-05-14T04:19:08.535Z,98.80
2023-05-14T04:20:08.457Z,98.70
2023-05-14T04:21:08.416Z,98.70
2023-05-14T04:22:08.410Z,98.70
2023-05-14T04:23:08.395Z,98.70
2023-05-14T04:24:08.403Z,98.55
2023-05-14T04:25:08.359Z,98.55
2023-05-14T04:26:08.354Z,98.55
2023-05-14T04:27:08.337Z,98.66
2023-05-14T04:28:08.355Z,98.55
2023-05-14T04:29:08.300Z,98.76
2023-05-14T04:30:08.314Z,98.66
2023-05-14T04:31:08.304Z,98.66
2023-05-14T04:32:08.301Z,98.66
2023-05-14T04:33:08.298Z,98.76
2023-05-14T04:34:08.237Z,99.07
2023-05-14T04:35:08.233Z,99.17
2023-05-14T04:36:08.237Z,99.17
2023-05-14T04:37:08.185Z,99.33
2023-05-14T04:38:08.192Z,99.43
2023-05-14T04:39:08.169Z,99.43
2023-05-14T04:40:08.162Z,99.54
2023-05-14T04:41:08.163Z,99.63
2023-05-14T04:42:08.116Z,99.63
2023-05-14T04:43:08.119Z,99.63
2023-05-14T04:44:08.099Z,99.63
2023-05-14T04:45:08.104Z,99.74
2023-05-14T04:46:08.140Z,99.84
2023-05-14T04:47:08.070Z,99.79
2023-05-14T04:48:08.139Z,99.79
2023-05-14T04:49:08.025Z,99.79
2023-05-14T04:50:08.035Z,99.69
2023-05-14T04:51:08.019Z,99.69
2023-05-14T04:52:08.020Z,99.69
2023-05-14T04:53:08.024Z,99.59
2023-05-14T04:54:08.071Z,99.59
2023-05-14T04:55:07.958Z,99.59
2023-05-14T04:56:07.951Z,99.59
2023-05-14T04:57:07.929Z,99.38
2023-05-14T04:58:07.943Z,99.38
2023-05-14T04:59:07.931Z,99.44
2023-05-14T05:00:07.907Z,99.34
2023-05-14T05:01:07.944Z,99.34
2023-05-14T05:02:07.863Z,99.24
2023-05-14T05:03:07.945Z,99.24
2023-05-14T05:04:08.055Z,99.24
2023-05-14T05:05:07.830Z,99.13
2023-05-14T05:06:07.819Z,99.03
2023-05-14T05:07:07.825Z,99.03
2023-05-14T05:08:07.792Z,99.03
2023-05-14T05:09:07.799Z,98.93
2023-05-14T05:10:07.789Z,99.03
2023-05-14T05:11:07.747Z,98.99
2023-05-14T05:12:07.743Z,98.78
2023-05-14T05:13:07.723Z,98.58
2023-05-14T05:14:07.731Z,98.47
2023-05-14T05:15:07.693Z,98.47
2023-05-14T05:16:07.734Z,98.58
2023-05-14T05:17:07.697Z,98.78
2023-05-14T05:18:07.901Z,98.88
2023-05-14T05:19:07.730Z,99.09
2023-05-14T05:20:07.650Z,99.19
2023-05-14T05:21:07.620Z,99.29
2023-05-14T05:22:07.587Z,99.09
2023-05-14T05:23:07.572Z,98.88
2023-05-14T05:24:07.577Z,98.63
2023-05-14T05:25:07.656Z,98.33
2023-05-14T05:26:07.553Z,98.12
2023-05-14T05:27:07.526Z,98.02
2023-05-14T05:28:07.519Z,97.91
2023-05-14T05:29:07.536Z,97.81
2023-05-14T05:30:07.505Z,97.81
2023-05-14T05:31:07.631Z,97.81
2023-05-14T05:32:07.475Z,97.71
2023-05-14T05:33:07.463Z,97.71
2023-05-14T05:34:07.439Z,97.61
2023-05-14T05:35:07.442Z,97.50
2023-05-14T05:36:07.403Z,97.40
2023-05-14T05:37:07.397Z,97.50
2023-05-14T05:38:07.382Z,97.91
2023-05-14T05:39:07.383Z,98.02
2023-05-14T05:40:07.374Z,98.07
2023-05-14T05:41:07.337Z,98.38
2023-05-14T05:42:07.327Z,98.38
2023-05-14T05:43:07.345Z,98.18
2023-05-14T05:44:07.291Z,97.77
2023-05-14T05:45:07.321Z,97.56
2023-05-14T05:46:07.299Z,97.05
2023-05-14T05:47:07.291Z,96.84
2023-05-14T05:48:07.349Z,96.74
2023-05-14T05:49:07.257Z,96.23
2023-05-14T05:50:07.222Z,96.49
2023-05-14T05:51:07.211Z,97.21
2023-05-14T05:52:07.214Z,97.31
2023-05-14T05:53:07.198Z,96.70
2023-05-14T05:54:07.150Z,96.59
2023-05-14T05:55:07.143Z,96.19
2023-05-14T05:56:07.152Z,96.29
2023-05-14T05:57:07.136Z,96.45
2023-05-14T05:58:07.147Z,96.25
2023-05-14T05:59:07.114Z,95.22
2023-05-14T06:00:07.097Z,95.22
2023-05-14T06:01:07.081Z,95.53
2023-05-14T06:02:07.077Z,95.73
2023-05-14T06:03:07.089Z,95.43
2023-05-14T06:04:07.069Z,95.43
2023-05-14T06:05:07.022Z,95.22
2023-05-14T06:06:07.001Z,94.81
2023-05-14T06:07:06.998Z,94.87
2023-05-14T06:08:07.008Z,94.67
2023-05-14T06:09:07.108Z,94.06
2023-05-14T06:10:06.943Z,93.95
2023-05-14T06:11:06.978Z,93.65
2023-05-14T06:12:06.928Z,93.44
2023-05-14T06:13:06.924Z,92.93
2023-05-14T06:14:06.893Z,91.80
2023-05-14T06:15:06.890Z,90.88
2023-05-14T06:16:06.936Z,89.72
2023-05-14T06:17:06.870Z,89.20
2023-05-14T06:18:06.869Z,89.31
2023-05-14T06:19:06.863Z,89.92
2023-05-14T06:20:06.822Z,89.20
2023-05-14T06:21:06.905Z,90.02
2023-05-14T06:22:06.791Z,89.61
2023-05-14T06:23:06.758Z,89.61
2023-05-14T06:24:06.766Z,90.43
2023-05-14T06:25:06.739Z,90.23
2023-05-14T06:26:06.788Z,90.12
2023-05-14T06:27:06.720Z,90.43
2023-05-14T06:28:06.701Z,90.74
2023-05-14T06:29:06.687Z,89.72
2023-05-14T06:30:06.699Z,89.72
2023-05-14T06:31:06.717Z,89.82
2023-05-14T06:32:06.690Z,89.20
2023-05-14T06:33:06.672Z,89.61
2023-05-14T06:34:06.649Z,89.61
2023-05-14T06:35:06.666Z,89.41
2023-05-14T06:36:06.596Z,88.90
2023-05-14T06:37:06.613Z,88.90
2023-05-14T06:38:06.588Z,89.58
2023-05-14T06:39:06.614Z,90.19
2023-05-14T06:40:06.541Z,91.00
2023-05-14T06:41:06.533Z,91.11
2023-05-14T06:42:06.518Z,92.02
2023-05-14T06:43:06.504Z,92.43
2023-05-14T06:44:06.503Z,92.74
2023-05-14T06:45:06.613Z,92.84
2023-05-14T06:46:06.485Z,93.25
2023-05-14T06:47:06.465Z,93.66
2023-05-14T06:48:06.470Z,93.66
2023-05-14T06:49:06.482Z,93.45
2023-05-14T06:50:06.754Z,92.84
2023-05-14T06:51:06.454Z,92.84
2023-05-14T06:52:06.392Z,92.94
2023-05-14T06:53:06.381Z,92.74
2023-05-14T06:54:06.387Z,92.59
2023-05-14T06:55:06.398Z,92.29
2023-05-14T06:56:06.332Z,92.19
2023-05-14T06:57:06.329Z,92.29
2023-05-14T06:58:06.304Z,92.39
2023-05-14T06:59:06.308Z,92.59
2023-05-14T07:00:06.286Z,92.49
2023-05-14T07:01:06.310Z,92.49
2023-05-14T07:02:06.249Z,92.39
2023-05-14T07:03:06.302Z,92.49
2023-05-14T07:04:06.326Z,92.59
2023-05-14T07:05:06.205Z,92.49
2023-05-14T07:06:06.206Z,92.69
2023-05-14T07:07:06.200Z,92.39
2023-05-14T07:08:06.161Z,92.35
2023-05-14T07:09:06.195Z,92.45
2023-05-14T07:10:06.144Z,92.96
2023-05-14T07:11:06.128Z,92.96
2023-05-14T07:12:06.137Z,92.86
2023-05-14T07:13:06.103Z,92.35
2023-05-14T07:14:06.093Z,91.94
2023-05-14T07:15:06.074Z,91.63
2023-05-14T07:16:06.074Z,91.94
2023-05-14T07:17:06.082Z,92.35
2023-05-14T07:18:06.089Z,92.65
2023-05-14T07:19:06.190Z,93.16
2023-05-14T07:20:05.993Z,92.65
2023-05-14T07:21:05.991Z,92.10
2023-05-14T07:22:06.016Z,92.10
2023-05-14T07:23:05.989Z,91.89
2023-05-14T07:24:05.986Z,91.89
2023-05-14T07:25:05.952Z,91.28
2023-05-14T07:26:05.944Z,91.02
2023-05-14T07:27:05.910Z,90.81
2023-05-14T07:28:05.918Z,90.51
2023-05-14T07:29:05.889Z,90.77
2023-05-14T07:30:05.869Z,90.92
2023-05-14T07:31:05.884Z,90.88
2023-05-14T07:32:05.872Z,91.12
2023-05-14T07:33:05.926Z,91.28
2023-05-14T07:34:05.807Z,90.67
2023-05-14T07:35:05.833Z,90.77
2023-05-14T07:36:05.788Z,90.67
2023-05-14T07:37:05.772Z,90.00
2023-05-14T07:38:05.805Z,90.00
2023-05-14T07:39:05.750Z,90.20
2023-05-14T07:40:05.815Z,90.51
2023-05-14T07:41:05.756Z,90.20
2023-05-14T07:42:05.734Z,90.41
2023-05-14T07:43:05.696Z,90.57
2023-05-14T07:44:05.740Z,91.28
2023-05-14T07:45:05.743Z,91.18
2023-05-14T07:46:05.653Z,90.98
2023-05-14T07:47:05.701Z,90.88
2023-05-14T07:48:05.758Z,90.88
2023-05-14T07:49:05.642Z,90.67
2023-05-14T07:50:05.614Z,90.77
2023-05-14T07:51:05.622Z,90.77
2023-05-14T07:52:05.585Z,90.88
2023-05-14T07:53:05.558Z,91.28
2023-05-14T07:54:05.548Z,91.59
2023-05-14T07:55:05.554Z,90.73
2023-05-14T07:56:05.532Z,90.63
2023-05-14T07:57:05.516Z,90.12
2023-05-14T07:58:05.489Z,90.22
2023-05-14T07:59:05.482Z,89.81
2023-05-14T08:00:05.510Z,89.92
2023-05-14T08:01:05.450Z,90.22
2023-05-14T08:02:05.490Z,89.20
2023-05-14T08:03:05.620Z,88.79
2023-05-14T08:04:05.438Z,89.10
2023-05-14T08:05:05.437Z,88.79
2023-05-14T08:06:05.390Z,89.16
2023-05-14T08:07:05.382Z,89.26
2023-05-14T08:08:05.364Z,89.16
2023-05-14T08:09:05.352Z,88.65
2023-05-14T08:10:05.344Z,89.06
2023-05-14T08:11:05.565Z,88.85
2023-05-14T08:12:05.317Z,88.65
2023-05-14T08:13:05.306Z,89.16
2023-05-14T08:14:05.286Z,88.34
2023-05-14T08:15:05.272Z,88.34
2023-05-14T08:16:05.303Z,88.45
2023-05-14T08:17:05.297Z,88.75
2023-05-14T08:18:05.268Z,88.81
2023-05-14T08:19:05.316Z,88.92
2023-05-14T08:20:05.232Z,89.01
2023-05-14T08:21:05.194Z,89.01
2023-05-14T08:22:05.188Z,89.53
2023-05-14T08:23:05.225Z,89.73
2023-05-14T08:24:05.160Z,89.22
2023-05-14T08:25:05.127Z,88.92
2023-05-14T08:26:05.168Z,88.31
2023-05-14T08:27:05.179Z,88.10
2023-05-14T08:28:05.098Z,87.65
2023-05-14T08:29:05.078Z,87.55
2023-05-14T08:30:05.103Z,88.36
2023-05-14T08:31:05.142Z,88.57
2023-05-14T08:32:12.117Z,88.46
2023-05-14T08:33:05.099Z,88.67
2023-05-14T08:34:05.037Z,87.85
2023-05-14T08:35:05.012Z,87.96
2023-05-14T08:36:05.042Z,87.14
2023-05-14T08:37:05.002Z,87.55
2023-05-14T08:38:04.982Z,88.16
2023-05-14T08:39:04.941Z,88.06
2023-05-14T08:40:04.944Z,87.14
2023-05-14T08:41:05.032Z,87.14
2023-05-14T08:42:04.941Z,87.71
2023-05-14T08:43:04.901Z,88.42
2023-05-14T08:44:04.883Z,88.12
2023-05-14T08:45:04.869Z,88.42
2023-05-14T08:46:04.862Z,88.02
2023-05-14T08:47:04.869Z,88.73
2023-05-14T08:48:05.013Z,88.73
2023-05-14T08:49:04.945Z,88.12
2023-05-14T08:50:04.819Z,88.02
2023-05-14T08:51:04.782Z,87.37
2023-05-14T08:52:04.781Z,86.86
2023-05-14T08:53:04.800Z,86.45
2023-05-14T08:54:04.739Z,87.16
2023-05-14T08:55:04.765Z,86.76
2023-05-14T08:56:04.706Z,86.04
2023-05-14T08:57:04.721Z,85.74
2023-05-14T08:58:04.726Z,85.84
2023-05-14T08:59:04.661Z,85.84
2023-05-14T09:00:04.658Z,85.84
2023-05-14T09:01:04.659Z,86.76
2023-05-14T09:02:04.761Z,86.76
2023-05-14T09:03:04.641Z,86.55
2023-05-14T09:04:04.658Z,86.15
2023-05-14T09:05:04.599Z,85.74
2023-05-14T09:06:04.600Z,85.37
2023-05-14T09:07:04.573Z,86.08
2023-05-14T09:08:04.555Z,85.98
2023-05-14T09:09:04.545Z,85.58
2023-05-14T09:10:04.592Z,86.08
2023-05-14T09:11:04.541Z,85.88
2023-05-14T09:12:04.514Z,86.19
2023-05-14T09:13:04.536Z,85.98
2023-05-14T09:14:04.484Z,86.59
2023-05-14T09:15:04.498Z,87.10
2023-05-14T09:16:04.469Z,86.59
2023-05-14T09:17:04.448Z,86.59
2023-05-14T09:18:04.447Z,86.69
2023-05-14T09:19:04.466Z,87.00
2023-05-14T09:20:04.426Z,87.10
2023-05-14T09:21:04.406Z,86.69
2023-05-14T09:22:04.374Z,86.29
2023-05-14T09:23:04.355Z,86.19
2023-05-14T09:24:04.422Z,86.59
2023-05-14T09:25:04.353Z,86.39
2023-05-14T09:26:04.333Z,85.88
2023-05-14T09:27:04.314Z,86.19
2023-05-14T09:28:04.315Z,86.69
2023-05-14T09:29:04.274Z,86.33
2023-05-14T09:30:04.258Z,86.63
2023-05-14T09:31:04.327Z,86.33
2023-05-14T09:32:04.333Z,86.43
2023-05-14T09:33:04.315Z,87.45
2023-05-14T09:34:04.196Z,87.04
2023-05-14T09:35:04.180Z,86.63
2023-05-14T09:36:04.188Z,86.63
2023-05-14T09:37:04.176Z,86.63
2023-05-14T09:38:04.196Z,86.53
2023-05-14T09:39:04.133Z,86.74
2023-05-14T09:40:04.165Z,87.04
2023-05-14T09:41:04.155Z,87.10
2023-05-14T09:42:04.098Z,86.80
2023-05-14T09:43:04.104Z,86.74
2023-05-14T09:44:06.103Z,86.83
2023-05-14T09:45:04.080Z,86.83
2023-05-14T09:46:04.140Z,86.83
2023-05-14T09:47:04.068Z,87.10
2023-05-14T09:48:04.130Z,87.20
2023-05-14T09:49:04.036Z,87.00
2023-05-14T09:50:04.014Z,87.41
2023-05-14T09:51:04.771Z,86.69
2023-05-14T09:52:03.975Z,87.92
2023-05-14T09:53:04.962Z,87.51
2023-05-14T09:54:03.943Z,87.00
2023-05-14T09:55:03.911Z,87.20
2023-05-14T09:56:03.920Z,86.59
2023-05-14T09:57:03.917Z,86.80
2023-05-14T09:58:03.892Z,85.58
2023-05-14T09:59:03.875Z,85.84
2023-05-14T10:00:03.876Z,85.53
2023-05-14T10:01:03.902Z,84.52
2023-05-14T10:02:03.842Z,85.43
2023-05-14T10:03:03.897Z,85.43
2023-05-14T10:04:03.839Z,85.53
2023-05-14T10:05:03.785Z,84.92
2023-05-14T10:06:03.782Z,84.01
2023-05-14T10:07:03.784Z,84.15
2023-05-14T10:08:03.737Z,84.97
2023-05-14T10:09:03.731Z,85.47
2023-05-14T10:10:03.712Z,84.76
2023-05-14T10:11:03.727Z,84.15
2023-05-14T10:12:03.720Z,84.35
2023-05-14T10:13:03.684Z,84.35
2023-05-14T10:14:03.689Z,84.66
2023-05-14T10:15:03.663Z,84.25
2023-05-14T10:16:03.663Z,85.27
2023-05-14T10:17:03.672Z,85.37
2023-05-14T10:18:03.653Z,85.23
2023-05-14T10:19:03.666Z,85.13
2023-05-14T10:20:03.590Z,84.72
2023-05-14T10:21:03.648Z,84.01
2023-05-14T10:22:03.562Z,84.11
2023-05-14T10:23:03.582Z,84.01
2023-05-14T10:24:03.518Z,83.70
2023-05-14T10:25:03.539Z,83.40
2023-05-14T10:26:03.506Z,82.99
2023-05-14T10:27:03.486Z,82.38
2023-05-14T10:28:03.513Z,82.99
2023-05-14T10:29:03.473Z,83.09
2023-05-14T10:30:03.454Z,83.29
2023-05-14T10:31:03.432Z,82.38
2023-05-14T10:32:03.424Z,82.28
2023-05-14T10:33:03.484Z,82.68
2023-05-14T10:34:03.429Z,82.68
2023-05-14T10:35:03.374Z,82.68
2023-05-14T10:36:03.374Z,82.48
2023-05-14T10:37:03.350Z,82.38
2023-05-14T10:38:03.364Z,82.79
2023-05-14T10:39:03.346Z,82.68
2023-05-14T10:40:03.373Z,82.59
2023-05-14T10:41:03.299Z,82.18
2023-05-14T10:42:03.305Z,81.57
2023-05-14T10:43:03.275Z,82.18
2023-05-14T10:44:03.259Z,82.28
2023-05-14T10:45:03.245Z,82.18
2023-05-14T10:46:03.382Z,82.18
2023-05-14T10:47:03.340Z,82.24
2023-05-14T10:48:03.243Z,81.73
2023-05-14T10:49:03.182Z,81.93
2023-05-14T10:50:03.241Z,81.84
2023-05-14T10:51:03.262Z,82.34
2023-05-14T10:52:03.150Z,81.63
2023-05-14T10:53:03.151Z,82.51
2023-05-14T10:54:03.176Z,82.81
2023-05-14T10:55:03.836Z,82.20
2023-05-14T10:56:03.180Z,81.19
2023-05-14T10:57:03.093Z,80.94
2023-05-14T10:58:03.156Z,81.45
2023-05-14T10:59:03.149Z,81.05
2023-05-14T11:00:03.166Z,79.83
2023-05-14T11:01:03.028Z,80.33
2023-05-14T11:02:03.057Z,80.33
2023-05-14T11:03:03.048Z,80.94
2023-05-14T11:04:03.052Z,79.72
2023-05-14T11:05:03.011Z,79.93
2023-05-14T11:06:02.975Z,80.44
2023-05-14T11:07:02.949Z,80.94
2023-05-14T11:08:02.945Z,79.42
2023-05-14T11:09:02.942Z,80.24
2023-05-14T11:10:02.894Z,79.59
2023-05-14T11:11:02.899Z,79.59
2023-05-14T11:12:02.890Z,79.59
2023-05-14T11:13:02.867Z,79.79
2023-05-14T11:14:02.858Z,79.08
2023-05-14T11:15:02.879Z,78.06
2023-05-14T11:16:15.153Z,78.27
2023-05-14T11:17:02.856Z,78.57
2023-05-14T11:18:02.894Z,79.45
2023-05-14T11:19:02.907Z,78.74
2023-05-14T11:20:02.792Z,77.93
2023-05-14T11:21:02.792Z,77.62
2023-05-14T11:22:02.796Z,78.33
2023-05-14T11:23:02.764Z,78.03
2023-05-14T11:24:02.726Z,77.12
2023-05-14T11:25:02.722Z,76.91
2023-05-14T11:26:02.767Z,76.71
2023-05-14T11:27:02.702Z,77.62
2023-05-14T11:28:02.674Z,77.32
2023-05-14T11:29:02.666Z,77.62
2023-05-14T11:30:02.672Z,76.81
2023-05-14T11:31:02.630Z,77.72
2023-05-14T11:32:02.749Z,77.52
2023-05-14T11:33:02.691Z,77.52
2023-05-14T11:34:02.590Z,77.72
2023-05-14T11:35:02.609Z,76.81
2023-05-14T11:36:02.594Z,76.31
2023-05-14T11:37:02.550Z,77.52
2023-05-14T11:38:02.526Z,77.99
2023-05-14T11:39:02.562Z,77.79
2023-05-14T11:40:02.532Z,76.27
2023-05-14T11:41:02.499Z,75.66
2023-05-14T11:42:02.516Z,76.27
2023-05-14T11:43:02.483Z,75.96
2023-05-14T11:44:02.466Z,75.46
2023-05-14T11:45:02.448Z,75.56
2023-05-14T11:46:02.560Z,75.05
2023-05-14T11:47:02.414Z,74.95
2023-05-14T11:48:02.451Z,74.54
2023-05-14T11:49:02.397Z,75.29
2023-05-14T11:50:02.399Z,76.27
2023-05-14T11:51:02.416Z,76.37
2023-05-14T11:52:02.356Z,74.74
2023-05-14T11:53:02.393Z,74.98
2023-05-14T11:54:02.332Z,74.58
2023-05-14T11:55:02.333Z,74.58
2023-05-14T11:56:02.307Z,74.88
2023-05-14T11:57:02.287Z,74.58
2023-05-14T11:58:02.308Z,74.38
2023-05-14T11:59:02.256Z,74.88
2023-05-14T12:00:02.281Z,75.49
2023-05-14T12:01:02.261Z,74.68
2023-05-14T12:02:02.323Z,74.07
2023-05-14T12:03:02.263Z,74.68
2023-05-14T12:04:02.293Z,74.78
2023-05-14T12:05:02.194Z,74.68
2023-05-14T12:06:02.243Z,74.88
2023-05-14T12:07:02.144Z,75.79
2023-05-14T12:08:02.175Z,75.39
2023-05-14T12:09:02.133Z,74.88
2023-05-14T12:10:02.119Z,75.59
2023-05-14T12:11:02.109Z,75.19
2023-05-14T12:12:02.082Z,75.39
2023-05-14T12:13:02.085Z,75.19
2023-05-14T12:14:02.080Z,76.10
2023-05-14T12:15:02.051Z,75.59
2023-05-14T12:16:02.311Z,76.27
2023-05-14T12:17:02.028Z,77.38
2023-05-14T12:18:02.895Z,76.27
2023-05-14T12:19:02.037Z,75.12
2023-05-14T12:20:02.017Z,75.82
2023-05-14T12:21:01.976Z,75.73
2023-05-14T12:22:01.990Z,75.62
2023-05-14T12:23:01.945Z,73.60
2023-05-14T12:24:01.942Z,73.49
2023-05-14T12:25:01.947Z,74.41
2023-05-14T12:26:01.904Z,74.10
2023-05-14T12:27:01.914Z,73.60
2023-05-14T12:28:01.897Z,74.00
2023-05-14T12:29:01.877Z,73.80
2023-05-14T12:30:12.980Z,74.51
2023-05-14T12:31:01.864Z,73.80
2023-05-14T12:32:01.817Z,73.60
2023-05-14T12:33:01.838Z,73.70
2023-05-14T12:34:01.802Z,73.90
2023-05-14T12:35:01.790Z,73.80
2023-05-14T12:36:19.723Z,74.81
2023-05-14T12:37:01.845Z,74.30
2023-05-14T12:38:01.736Z,75.12
2023-05-14T12:39:01.748Z,74.17
2023-05-14T12:40:01.721Z,74.07
2023-05-14T12:41:01.724Z,73.66
2023-05-14T12:42:01.712Z,73.32
2023-05-14T12:43:01.662Z,72.61
2023-05-14T12:44:01.680Z,72.01
2023-05-14T12:45:01.678Z,73.12
2023-05-14T12:46:01.658Z,72.52
2023-05-14T12:47:01.645Z,72.55
2023-05-14T12:48:01.625Z,72.14
2023-05-14T12:49:01.626Z,72.14
2023-05-14T12:50:01.610Z,73.25
2023-05-14T12:51:01.581Z,73.16
2023-05-14T12:52:19.428Z,73.16
2023-05-14T12:53:01.554Z,73.76